Arrington, Tennessee
Current Conditions -  °F | °C
As of 1:53 PM on Monday 22 Dec 2014 (Local Time) from KBNA Reporting Station
Overcast Overcast  
Wind Chill: 52°   Ceiling: 1700
Heat Index: 52°   Visibility: 10mi
Dew Point: 49°   Wind: 7mph
Humidity: 89%   Direction: 170°S
Pressure: 29.78"   Gusts: NA
Location:  35.87°N, 86.71°W
Report Text: KBNA 221953Z 17006KT 10SM BKN017 OVC055 11/09 A2978 RMK AO2 RAB23E47 SLP084 P0000 T01110094
Loading
Personal Weather Stations






























Interactive Weather Map New forecast layout! Learn more

10-Day Weather Forecast

Advertisements
Track Severe Weather on mobile